createdAt,value
2018-12-27T00:01:48.835Z,-3.47
2018-12-27T00:04:31.926Z,-3.58
2018-12-27T00:07:22.398Z,-3.50
2018-12-27T00:10:04.240Z,-3.60
2018-12-27T00:16:17.366Z,-3.72
2018-12-27T00:19:00.386Z,-3.59
2018-12-27T00:21:43.112Z,-3.42
2018-12-27T00:27:53.861Z,-3.48
2018-12-27T00:30:37.082Z,-3.44
2018-12-27T00:33:27.738Z,-3.40
2018-12-27T00:36:09.624Z,-3.50
2018-12-27T00:39:00.299Z,-3.34
2018-12-27T00:41:44.951Z,-3.39
2018-12-27T00:47:37.191Z,-3.54
2018-12-27T00:50:18.923Z,-3.33
2018-12-27T00:53:09.570Z,-3.38
2018-12-27T00:55:52.557Z,-3.48
2018-12-27T00:58:36.841Z,-3.50
2018-12-27T01:01:18.583Z,-3.38
2018-12-27T01:04:09.349Z,-3.39
2018-12-27T01:06:52.941Z,-3.38
2018-12-27T01:09:43.596Z,-3.34
2018-12-27T01:12:27.269Z,-3.13
2018-12-27T01:18:44.498Z,-3.19
2018-12-27T01:21:28.068Z,-2.90
2018-12-27T01:24:10.976Z,-3.23
2018-12-27T01:33:24.436Z,-3.27
2018-12-27T01:36:13.383Z,-3.34
2018-12-27T01:42:31.338Z,-3.39
2018-12-27T01:45:14.985Z,-3.25
2018-12-27T01:47:58.443Z,-3.33
2018-12-27T01:50:49.142Z,-3.52
2018-12-27T01:53:32.540Z,-3.59
2018-12-27T01:59:43.177Z,-3.40
2018-12-27T02:02:26.625Z,-3.41
2018-12-27T02:05:10.063Z,-3.64
2018-12-27T02:08:00.700Z,-3.55
2018-12-27T02:10:42.326Z,-3.60
2018-12-27T02:13:32.953Z,-3.59
2018-12-27T02:16:16.578Z,-3.55
2018-12-27T02:19:07.309Z,-3.44
2018-12-27T02:21:49.071Z,-3.52
2018-12-27T02:24:39.789Z,-3.46
2018-12-27T02:27:23.159Z,-3.59
2018-12-27T02:33:40.215Z,-3.45
2018-12-27T02:36:23.753Z,-3.54
2018-12-27T02:39:14.402Z,-3.69
2018-12-27T02:41:57.490Z,-3.80
2018-12-27T02:44:48.215Z,-3.96
2018-12-27T02:47:31.364Z,-3.81
2018-12-27T02:50:21.990Z,-3.90
2018-12-27T02:53:05.271Z,-3.81
2018-12-27T02:55:55.987Z,-3.58
2018-12-27T02:58:39.441Z,-3.61
2018-12-27T03:01:30.121Z,-3.54
2018-12-27T03:04:13.601Z,-3.57
2018-12-27T03:07:23.333Z,-3.73
2018-12-27T03:10:12.438Z,-3.92
2018-12-27T03:13:03.082Z,-3.74
2018-12-27T03:15:46.622Z,-3.79
2018-12-27T03:18:37.368Z,-3.71
2018-12-27T03:21:20.491Z,-3.87
2018-12-27T03:24:21.194Z,-3.74
2018-12-27T03:27:11.810Z,-3.72
2018-12-27T03:29:55.158Z,-3.77
2018-12-27T03:32:45.888Z,-3.79
2018-12-27T03:35:29.429Z,-3.68
2018-12-27T03:38:20.062Z,-3.76
2018-12-27T03:41:03.569Z,-3.85
2018-12-27T03:47:17.036Z,-3.64
2018-12-27T03:50:00.526Z,-3.72
2018-12-27T03:52:42.146Z,-3.90
2018-12-27T03:55:32.855Z,-3.90
2018-12-27T03:58:16.160Z,-3.94
2018-12-27T04:04:20.087Z,-4.20
2018-12-27T04:07:03.466Z,-4.30
2018-12-27T04:09:46.654Z,-3.95
2018-12-27T04:12:56.340Z,-4.07
2018-12-27T04:15:39.869Z,-4.26
2018-12-27T04:21:55.309Z,-3.95
2018-12-27T04:24:38.676Z,-4.09
2018-12-27T04:27:22.294Z,-3.93
2018-12-27T04:33:35.538Z,-3.99
2018-12-27T04:36:18.558Z,-3.88
2018-12-27T04:39:02.148Z,-3.85
2018-12-27T04:45:14.357Z,-3.98
2018-12-27T04:47:57.618Z,-3.89
2018-12-27T04:50:41.141Z,-3.96
2018-12-27T04:59:55.626Z,-3.98
2018-12-27T05:02:38.677Z,-3.93
2018-12-27T05:05:21.500Z,-3.94
2018-12-27T05:08:04.831Z,-3.86
2018-12-27T05:10:48.353Z,-3.84
2018-12-27T05:20:03.021Z,-3.79
2018-12-27T05:22:45.806Z,-3.93
2018-12-27T05:29:03.207Z,-3.80
2018-12-27T05:31:46.066Z,-4.00
2018-12-27T05:34:28.874Z,-3.92
2018-12-27T05:40:39.506Z,-3.82
2018-12-27T05:43:22.751Z,-3.75
2018-12-27T05:46:06.155Z,-3.83
2018-12-27T05:48:56.673Z,-3.97
2018-12-27T05:51:39.508Z,-3.97
2018-12-27T05:54:29.977Z,-4.12
2018-12-27T05:57:12.816Z,-3.97
2018-12-27T06:03:25.882Z,-4.10
2018-12-27T06:06:09.180Z,-4.08
2018-12-27T06:08:52.389Z,-4.32
2018-12-27T06:18:04.473Z,-4.21
2018-12-27T06:20:47.940Z,-4.30
2018-12-27T06:26:39.982Z,-4.24
2018-12-27T06:29:23.454Z,-4.40
2018-12-27T06:35:42.469Z,-4.43
2018-12-27T06:38:25.626Z,-4.54
2018-12-27T06:41:09.053Z,-4.11
2018-12-27T06:47:19.809Z,-4.17
2018-12-27T06:50:03.088Z,-4.14
2018-12-27T06:52:45.925Z,-4.11
2018-12-27T06:59:03.019Z,-4.18
2018-12-27T07:01:46.223Z,-4.20
2018-12-27T07:04:29.790Z,-4.47
2018-12-27T07:10:40.493Z,-4.29
2018-12-27T07:13:25.453Z,-4.26
2018-12-27T07:16:08.337Z,-4.39
2018-12-27T07:18:58.850Z,-4.63
2018-12-27T07:21:42.342Z,-4.50
2018-12-27T07:24:32.877Z,-4.20
2018-12-27T07:27:16.105Z,-3.47
2018-12-27T07:36:41.161Z,-3.13
2018-12-27T07:39:31.743Z,-3.44
2018-12-27T07:42:14.850Z,-3.39
2018-12-27T07:48:31.760Z,-3.15
2018-12-27T07:51:15.052Z,-2.88
2018-12-27T07:53:58.424Z,-2.75
2018-12-27T07:56:48.874Z,-2.59
2018-12-27T07:59:32.221Z,-2.50
2018-12-27T08:05:37.995Z,-2.42
2018-12-27T08:08:21.307Z,-2.02
2018-12-27T08:11:04.062Z,-1.99
2018-12-27T08:20:16.233Z,-2.07
2018-12-27T08:22:59.672Z,-1.78
2018-12-27T08:28:51.774Z,-1.57
2018-12-27T08:31:34.894Z,-1.41
2018-12-27T08:34:17.696Z,-1.19
2018-12-27T08:40:30.678Z,-1.56
2018-12-27T08:43:13.923Z,-1.64
2018-12-27T08:45:57.468Z,-1.43
2018-12-27T08:52:07.853Z,-1.45
2018-12-27T08:54:51.298Z,-1.34
2018-12-27T08:57:34.569Z,-1.29
2018-12-27T09:00:25.110Z,-1.25
2018-12-27T09:03:08.759Z,-1.21
2018-12-27T09:05:52.337Z,-1.37
2018-12-27T09:09:01.772Z,-1.04
2018-12-27T09:11:46.334Z,-1.26
2018-12-27T09:14:55.793Z,-0.95
2018-12-27T09:17:40.883Z,-0.84
2018-12-27T09:20:50.347Z,-0.82
2018-12-27T09:23:33.632Z,-0.81
2018-12-27T09:26:24.169Z,-0.76
2018-12-27T09:29:07.006Z,-0.45
2018-12-27T09:32:16.427Z,-0.25
2018-12-27T09:35:00.082Z,-0.38
2018-12-27T09:37:43.752Z,-0.57
2018-12-27T09:40:34.301Z,-0.26
2018-12-27T09:43:17.525Z,-0.04
2018-12-27T09:46:08.231Z,-0.17
2018-12-27T09:48:49.781Z,-0.47
2018-12-27T09:58:02.542Z,-0.45
2018-12-27T10:00:45.321Z,-0.17
2018-12-27T10:06:48.441Z,-0.06
2018-12-27T10:09:31.188Z,-0.08
2018-12-27T10:12:14.734Z,-0.20
2018-12-27T10:15:05.806Z,0.04
2018-12-27T10:17:48.564Z,0.18
2018-12-27T10:20:39.007Z,0.22
2018-12-27T10:23:22.182Z,0.32
2018-12-27T10:26:12.821Z,0.31
2018-12-27T10:28:54.340Z,0.28
2018-12-27T10:31:44.886Z,0.56
2018-12-27T10:34:28.259Z,0.90
2018-12-27T10:37:19.074Z,0.98
2018-12-27T10:40:02.379Z,1.12
2018-12-27T10:42:52.972Z,1.13
2018-12-27T10:45:36.122Z,1.29
2018-12-27T10:48:26.575Z,1.40
2018-12-27T10:51:10.157Z,1.57
2018-12-27T10:54:00.682Z,1.43
2018-12-27T10:56:43.915Z,1.43
2018-12-27T10:59:34.450Z,1.84
2018-12-27T11:02:17.554Z,1.49
2018-12-27T11:05:08.103Z,1.50
2018-12-27T11:07:51.602Z,1.40
2018-12-27T11:10:43.130Z,1.67
2018-12-27T11:13:25.949Z,1.59
2018-12-27T11:16:16.556Z,1.61
2018-12-27T11:18:59.815Z,1.69
2018-12-27T11:25:17.170Z,1.85
2018-12-27T11:28:00.508Z,2.14
2018-12-27T11:30:44.029Z,2.15
2018-12-27T11:33:34.575Z,2.17
2018-12-27T11:36:17.763Z,2.39
2018-12-27T11:39:08.306Z,2.54
2018-12-27T11:41:51.069Z,2.41
2018-12-27T11:44:41.589Z,2.44
2018-12-27T11:47:25.077Z,2.59
2018-12-27T11:50:15.630Z,2.88
2018-12-27T11:52:58.609Z,2.55
2018-12-27T11:55:49.110Z,2.65
2018-12-27T11:58:31.894Z,3.00
2018-12-27T12:01:22.395Z,2.89
2018-12-27T12:04:06.090Z,2.70
2018-12-27T12:06:56.634Z,2.65
2018-12-27T12:09:47.201Z,2.87
2018-12-27T12:12:29.945Z,2.74
2018-12-27T12:15:12.726Z,2.85
2018-12-27T12:18:03.237Z,3.06
2018-12-27T12:20:44.760Z,3.06
2018-12-27T12:23:35.287Z,3.01
2018-12-27T12:26:16.783Z,2.99
2018-12-27T12:29:07.334Z,3.35
2018-12-27T12:31:50.936Z,3.00
2018-12-27T12:34:41.510Z,3.43
2018-12-27T12:37:24.276Z,3.37
2018-12-27T12:40:14.823Z,3.22
2018-12-27T12:42:57.658Z,3.04
2018-12-27T12:45:48.152Z,3.27
2018-12-27T12:48:31.592Z,3.25
2018-12-27T12:54:25.138Z,3.28
2018-12-27T12:57:15.685Z,3.30
2018-12-27T12:59:58.508Z,3.45
2018-12-27T13:02:49.124Z,3.39
2018-12-27T13:05:32.363Z,3.23
2018-12-27T13:08:15.997Z,3.38
2018-12-27T13:11:06.587Z,3.25
2018-12-27T13:13:49.716Z,3.30
2018-12-27T13:16:33.269Z,3.11
2018-12-27T13:19:23.852Z,3.14
2018-12-27T13:22:09.077Z,3.35
2018-12-27T13:24:59.594Z,3.43
2018-12-27T13:27:43.130Z,3.18
2018-12-27T13:30:33.674Z,3.38
2018-12-27T13:33:17.090Z,3.03
2018-12-27T13:39:09.767Z,2.92
2018-12-27T13:42:00.309Z,3.10
2018-12-27T13:44:43.701Z,3.23
2018-12-27T13:47:34.207Z,2.90
2018-12-27T13:50:17.539Z,3.06
2018-12-27T13:53:08.034Z,2.86
2018-12-27T13:55:51.351Z,2.89
2018-12-27T13:58:41.876Z,3.00
2018-12-27T14:01:25.198Z,2.91
2018-12-27T14:04:15.725Z,2.70
2018-12-27T14:06:59.198Z,2.71
2018-12-27T14:09:41.908Z,2.86
2018-12-27T14:12:32.491Z,2.68
2018-12-27T14:15:15.614Z,2.67
2018-12-27T14:17:58.388Z,2.58
2018-12-27T14:20:48.926Z,2.68
2018-12-27T14:23:32.346Z,2.81
2018-12-27T14:26:22.852Z,2.90
2018-12-27T14:29:06.427Z,2.70
2018-12-27T14:31:56.971Z,2.48
2018-12-27T14:34:40.167Z,2.39
2018-12-27T14:40:53.510Z,2.28
2018-12-27T14:43:36.980Z,2.27
2018-12-27T14:46:28.266Z,1.99
2018-12-27T14:49:11.851Z,1.90
2018-12-27T14:52:02.359Z,1.94
2018-12-27T14:54:45.306Z,1.86
2018-12-27T15:00:44.168Z,2.14
2018-12-27T15:03:34.789Z,2.02
2018-12-27T15:06:18.272Z,1.87
2018-12-27T15:09:09.181Z,1.77
2018-12-27T15:11:52.849Z,1.72
2018-12-27T15:18:03.677Z,1.72
2018-12-27T15:20:52.411Z,1.77
2018-12-27T15:26:51.190Z,1.48
2018-12-27T15:29:41.728Z,1.47
2018-12-27T15:32:24.409Z,1.33
2018-12-27T15:35:14.995Z,1.42
2018-12-27T15:37:58.461Z,1.36
2018-12-27T15:40:49.068Z,1.30
2018-12-27T15:43:32.480Z,1.23
2018-12-27T15:46:23.039Z,1.17
2018-12-27T15:49:06.516Z,1.17
2018-12-27T15:51:59.992Z,1.17
2018-12-27T15:54:43.167Z,1.05
2018-12-27T15:57:33.714Z,1.11
2018-12-27T16:00:17.322Z,1.08
2018-12-27T16:03:07.900Z,1.08
2018-12-27T16:05:51.420Z,1.04
2018-12-27T16:08:41.988Z,0.92
2018-12-27T16:11:25.230Z,0.72
2018-12-27T16:14:15.813Z,0.87
2018-12-27T16:16:58.924Z,0.70
2018-12-27T16:34:59.764Z,0.73
2018-12-27T16:37:43.333Z,0.73
2018-12-27T16:40:33.891Z,0.71
2018-12-27T16:43:16.733Z,0.63
2018-12-27T16:46:07.256Z,0.64
2018-12-27T16:49:09.306Z,0.59
2018-12-27T17:01:04.692Z,0.74
2018-12-27T17:03:47.463Z,0.75
2018-12-27T17:10:00.559Z,0.80
2018-12-27T17:12:42.264Z,0.70
2018-12-27T17:15:32.830Z,0.62
2018-12-27T17:18:15.735Z,0.45
2018-12-27T17:21:06.311Z,0.56
2018-12-27T17:23:49.585Z,0.53
2018-12-27T17:26:40.165Z,0.49
2018-12-27T17:29:23.202Z,0.49
2018-12-27T17:35:15.846Z,0.44
2018-12-27T17:37:59.011Z,0.38
2018-12-27T17:43:51.894Z,0.49
2018-12-27T17:46:35.851Z,0.40
2018-12-27T17:52:53.426Z,0.36
2018-12-27T17:55:36.270Z,0.24
2018-12-27T18:01:28.771Z,0.21
2018-12-27T18:04:11.917Z,0.27
2018-12-27T18:10:04.412Z,0.18
2018-12-27T18:12:47.147Z,0.16
2018-12-27T18:19:06.262Z,0.01
2018-12-27T18:21:49.674Z,0.01
2018-12-27T18:24:32.617Z,-0.02
2018-12-27T18:30:45.714Z,0.07
2018-12-27T18:33:30.424Z,-0.04
2018-12-27T18:36:13.352Z,-0.08
2018-12-27T18:42:04.728Z,0.06
2018-12-27T18:44:47.878Z,0.00
2018-12-27T18:47:38.357Z,-0.04
2018-12-27T18:50:21.431Z,-0.04
2018-12-27T18:53:11.991Z,-0.03
2018-12-27T18:55:55.509Z,-0.10
2018-12-27T18:58:46.083Z,-0.06
2018-12-27T19:01:29.015Z,-0.14
2018-12-27T19:04:19.581Z,-0.14
2018-12-27T19:07:02.954Z,-0.26
2018-12-27T19:09:53.607Z,-0.32
2018-12-27T19:12:55.569Z,-0.30
2018-12-27T19:16:05.236Z,-0.19
2018-12-27T19:18:50.208Z,-0.32
2018-12-27T19:22:01.999Z,-0.36
2018-12-27T19:24:45.391Z,-0.34
2018-12-27T19:27:36.029Z,-0.25
2018-12-27T19:30:19.360Z,-0.32
2018-12-27T19:33:09.953Z,-0.35
2018-12-27T19:35:59.125Z,-0.35
2018-12-27T19:38:49.670Z,-0.29
2018-12-27T19:41:33.016Z,-0.34
2018-12-27T19:44:24.568Z,-0.28
2018-12-27T19:47:07.426Z,-0.37
2018-12-27T19:49:57.985Z,-0.50
2018-12-27T19:52:40.932Z,-0.46
2018-12-27T19:58:33.007Z,-0.42
2018-12-27T20:01:16.481Z,-0.47
2018-12-27T20:04:06.954Z,-0.59
2018-12-27T20:06:49.906Z,-0.63
2018-12-27T20:09:32.836Z,-0.63
2018-12-27T20:12:16.014Z,-0.54
2018-12-27T20:15:25.655Z,-0.47
2018-12-27T20:18:08.397Z,-0.52
2018-12-27T20:20:58.958Z,-0.48
2018-12-27T20:23:42.271Z,-0.56
2018-12-27T20:26:32.851Z,-0.60
2018-12-27T20:29:16.266Z,-0.58
2018-12-27T20:32:06.841Z,-0.62
2018-12-27T20:34:50.318Z,-0.53
2018-12-27T20:37:40.932Z,-0.62
2018-12-27T20:40:24.524Z,-0.63
2018-12-27T20:43:15.099Z,-0.45
2018-12-27T20:45:57.870Z,-0.58
2018-12-27T20:48:48.477Z,-0.58
2018-12-27T20:51:31.201Z,-0.77
2018-12-27T20:57:43.865Z,-0.41
2018-12-27T21:00:29.656Z,-0.44
2018-12-27T21:06:46.450Z,-0.69
2018-12-27T21:09:29.364Z,-0.63
2018-12-27T21:12:12.157Z,-0.66
2018-12-27T21:14:53.742Z,-0.64
2018-12-27T21:18:03.175Z,-0.75
2018-12-27T21:20:46.147Z,-0.75
2018-12-27T21:23:55.588Z,-0.62
2018-12-27T21:26:38.544Z,-0.72
2018-12-27T21:29:48.055Z,-0.71
2018-12-27T21:32:31.236Z,-0.79
2018-12-27T21:35:40.672Z,-0.78
2018-12-27T21:38:23.576Z,-0.92
2018-12-27T21:47:17.736Z,-0.68
2018-12-27T21:50:02.617Z,-0.75
2018-12-27T21:58:56.979Z,-0.75
2018-12-27T22:01:40.514Z,-0.65
2018-12-27T22:04:31.114Z,-0.66
2018-12-27T22:07:14.321Z,-0.53
2018-12-27T22:13:19.373Z,-0.58
2018-12-27T22:16:00.908Z,-0.64
2018-12-27T22:18:44.113Z,-0.61
2018-12-27T22:21:34.650Z,-0.65
2018-12-27T22:24:17.973Z,-0.73
2018-12-27T22:27:08.504Z,-0.73
2018-12-27T22:29:51.965Z,-0.83
2018-12-27T22:32:42.492Z,-0.62
2018-12-27T22:35:26.047Z,-0.57
2018-12-27T22:38:16.602Z,-0.61
2018-12-27T22:40:59.918Z,-0.72
2018-12-27T22:50:12.567Z,-0.55
2018-12-27T22:52:55.994Z,-0.61
2018-12-27T22:56:05.673Z,-0.68
2018-12-27T22:58:49.067Z,-0.62
2018-12-27T23:01:39.633Z,-0.64
2018-12-27T23:04:21.217Z,-0.61
2018-12-27T23:07:11.657Z,-0.53
2018-12-27T23:09:55.067Z,-0.45
2018-12-27T23:15:58.686Z,-0.42
2018-12-27T23:18:41.637Z,-0.40
2018-12-27T23:21:23.175Z,-0.48
2018-12-27T23:24:13.716Z,-0.52
2018-12-27T23:26:57.113Z,-0.50
2018-12-27T23:29:47.713Z,-0.59
2018-12-27T23:32:30.526Z,-0.48
2018-12-27T23:35:21.062Z,-0.50
2018-12-27T23:38:04.401Z,-0.55
2018-12-27T23:40:54.915Z,-0.49
2018-12-27T23:43:38.323Z,-0.55
2018-12-27T23:46:28.904Z,-0.50
2018-12-27T23:49:12.417Z,-0.55
2018-12-27T23:52:03.006Z,-0.60
2018-12-27T23:54:46.420Z,-0.51
